Piona logo

Wyniki

Jarosławska Piona
#100

Dystans:5 km
Data:2016-06-18 (sobota)
Godzina:09:00
Miejscowość:Jarosław
Lokalizacja:Park miejski im. Bohaterów Monte Cassino - Zobacz trasę
Adres:Al. Szczepańskiego
Współrzędne GPS:50.0229, 22.6703 - Sprawdż na Google Maps
Wpisowe:brak
Liczba uczestników:39
Status:Zawody zakończone

OpenNumerKrajImięNazwiskoPłećR. ur.KMKategoria# KatMiejscowośćRezultat
[hh:mm:ss]
Tempo
[min/km]
1P227POLPolandArkadiuszJANICKIM19811M30-391JAROSŁAW00:17:0603:25
2P479POLPolandMarcinKRUBAM19872M20-291Jarosław00:18:4203:44
3P304POLPolandMichałNASPIŃSKIM19963M20-292Wiązownica00:20:0704:01
4P200POLPolandArkadiuszWERESZCZAKM19934M20-293Jarosław00:20:2404:05
5P329POLPolandMarcinSTEMPAKM19835M30-392Szówsko00:20:5704:11
6P508POLPolandMaciejPAJDAM19996M16-171Jarosław00:21:0504:13
7P493POLPolandDamianJABŁOŃSKIM19797M30-393Jarosław00:21:0604:13
8P205POLPolandWaldemarPLEBANKIEWICZM19648M50-591Jarosław00:21:5204:22
9P230POLPolandJaromirPAJDAM19729M40-491Jarosław00:22:1404:27
10P435POLPolandPiotrMORAWSKIM198210M30-394Jarosław00:22:1904:28
11P488POLPolandMarekPŁOCICAM197011M40-492Jarosław00:22:3004:30
12P515POLPolandPawełTYLKAM197212M40-493Jarosław00:22:3804:32
13P474POLPolandAdamOSIŃSKIM198213M30-395Jarosław00:24:4704:57
14P492POLPolandWiolettaSZABLANK19801K30-391JAROSLAW00:24:4804:58
15P439POLPolandMartaJOPK19792K30-392Jarosław00:24:5104:58
16P506POLPolandWojciechSKRZYPEKM197014M40-494Jarosław00:25:2105:04
17P254POLPolandKrzysztof CZWAKIEL M199115M20-294Wólka Pełkińska 00:26:1105:14
18P498POLPolandBogusławSOCHAM196716M40-495Jarosław00:27:0605:25
19P505POLPolandEwaRYZNERK19623K50-591Jarosław00:27:3205:30
20P359POLPolandDorotaGEMBAROWSKAK19894K20-291Laszki00:27:5605:35
21???-Klaudia KRYGOWSKA1*00:28:4905:46
22???-Gosia CĘCORA2*00:28:4905:46
23P510POLPolandZbigniewKRYGOWSKIM197617M40-496Lubaczów00:28:4905:46
24P503POLPolandAgnieszkaNIEMCZYKK19895K20-292Widna Góra00:30:2006:04
25P198POLPolandPawełHAJNUSM197118M40-497Jarosław00:30:2806:06
26P496POLPolandPaweł GRABOWSKIM198919M20-295Jarosław00:31:2606:17
27P437POLPolandDorotaSTECK19746K40-491Jarosław00:32:4206:32
28P294POLPolandJustynaWIELKIEWICZK19807K30-393Jarosław00:32:4306:33
29P334POLPolandJustyna GAJDAK19728K40-492Pawłosiów00:32:5106:34
30???-Bożena FIL3*00:33:0306:37
31???-Ewa SĄCZAWA4*00:33:0306:37
32???-Janusz MOKRZYCKI5*00:33:1706:39
33P239POLPolandPrzemysławPASZKOM197720M30-396Jarosław00:33:1706:39
34P507POLPolandGrzegorzKRZANOWSKIM198021M30-397Jarosław00:33:2006:40
35???-Michał PIGAN (M5)6*00:36:1207:14
36P426POLPolandAnnaPIGANK19799K30-394Szówsko00:36:1307:15
37???-Ewa MUSIAŁ7*00:36:1407:15
38???-Jerzy OSTAFIŃSKI8*00:36:1507:15
39???-Jerzy MICKIEWICZ9*00:36:1607:15

Jeśli widzisz błąd w wynikach prosimy o kontakt.

© 2014 Piona
Przemyśl Jarosławska Grupa Biegowa SOKÓŁ
Piona ikona